createdAt,value
2022-09-10T00:02:15.991Z,72.05
2022-09-10T00:04:42.985Z,71.28
2022-09-10T00:07:09.998Z,64.15
2022-09-10T00:09:36.879Z,62.25
2022-09-10T00:12:04.138Z,58.28
2022-09-10T00:14:31.110Z,45.97
2022-09-10T00:16:58.020Z,38.38
2022-09-10T00:19:25.178Z,29.45
2022-09-10T00:21:52.255Z,26.05
2022-09-10T00:24:19.261Z,27.27
2022-09-10T00:26:46.582Z,24.23
2022-09-10T00:29:15.970Z,25.17
2022-09-10T00:31:43.608Z,29.65
2022-09-10T00:34:12.288Z,35.42
2022-09-10T00:36:41.219Z,39.35
2022-09-10T00:39:11.162Z,46.42
2022-09-10T00:41:40.851Z,53.10
2022-09-10T00:44:39.999Z,64.00
2022-09-10T00:47:29.421Z,74.50
2022-09-10T00:50:20.063Z,72.38
2022-09-10T00:52:47.642Z,59.80
2022-09-10T00:55:15.927Z,67.60
2022-09-10T00:57:43.465Z,70.90
2022-09-10T01:00:13.041Z,82.95
2022-09-10T01:02:41.843Z,87.97
2022-09-10T01:05:10.678Z,89.43
2022-09-10T01:07:38.258Z,99.53
2022-09-10T01:10:13.091Z,113.28
2022-09-10T01:13:01.908Z,96.28
2022-09-10T01:15:40.386Z,92.75
2022-09-10T01:18:46.889Z,85.70
2022-09-10T01:21:23.558Z,76.60
2022-09-10T01:23:58.199Z,83.57
2022-09-10T01:26:34.880Z,122.95
2022-09-10T01:29:39.150Z,140.88
2022-09-10T01:32:13.115Z,124.50
2022-09-10T01:34:58.750Z,106.20
2022-09-10T01:37:29.806Z,143.65
2022-09-10T01:39:58.199Z,202.18
2022-09-10T01:42:27.729Z,218.48
2022-09-10T01:44:57.993Z,211.82
2022-09-10T01:47:38.763Z,140.60
2022-09-10T01:50:30.177Z,310.13
2022-09-10T01:53:04.922Z,248.07
2022-09-10T01:55:41.911Z,202.43
2022-09-10T01:58:33.664Z,133.07
2022-09-10T02:01:28.924Z,179.70
2022-09-10T02:04:00.317Z,126.82
2022-09-10T02:06:29.857Z,274.65
2022-09-10T02:08:59.909Z,320.83
2022-09-10T02:11:26.982Z,444.55
2022-09-10T02:13:55.233Z,371.75
2022-09-10T02:16:35.374Z,315.95
2022-09-10T02:19:03.429Z,218.80
2022-09-10T02:21:32.240Z,157.77
2022-09-10T02:24:06.139Z,284.13
2022-09-10T02:26:35.032Z,189.27
2022-09-10T02:29:02.419Z,188.27
2022-09-10T02:31:30.090Z,187.95
2022-09-10T02:33:57.042Z,235.07
2022-09-10T02:36:26.899Z,198.05
2022-09-10T02:38:58.770Z,140.55
2022-09-10T02:41:28.277Z,197.55
2022-09-10T02:43:55.689Z,275.65
2022-09-10T02:46:22.739Z,318.70
2022-09-10T02:48:49.995Z,208.15
2022-09-10T02:51:16.947Z,195.23
2022-09-10T02:53:44.476Z,219.40
2022-09-10T02:56:13.735Z,212.52
2022-09-10T02:58:42.630Z,134.55
2022-09-10T03:01:15.649Z,115.13
2022-09-10T03:03:55.153Z,150.88
2022-09-10T03:06:23.371Z,150.30
2022-09-10T03:08:51.860Z,190.02
2022-09-10T03:11:18.939Z,131.05
2022-09-10T03:13:46.401Z,143.00
2022-09-10T03:16:14.215Z,138.70
2022-09-10T03:18:41.873Z,132.48
2022-09-10T03:21:20.262Z,169.85
2022-09-10T03:23:49.570Z,146.27
2022-09-10T03:26:22.913Z,144.02
2022-09-10T03:28:50.227Z,163.40
2022-09-10T03:31:20.028Z,185.52
2022-09-10T03:33:49.318Z,144.50
2022-09-10T03:36:18.176Z,183.25
2022-09-10T03:38:47.168Z,265.83
2022-09-10T03:41:14.469Z,215.93
2022-09-10T03:43:41.561Z,291.65
2022-09-10T03:46:12.180Z,289.83
2022-09-10T03:48:43.762Z,250.25
2022-09-10T03:51:11.549Z,211.95
2022-09-10T03:53:39.519Z,300.08
2022-09-10T03:56:08.692Z,146.10
2022-09-10T03:58:36.022Z,365.23
2022-09-10T04:01:04.490Z,327.63
2022-09-10T04:03:35.125Z,292.57
2022-09-10T04:06:02.162Z,195.85
2022-09-10T04:08:29.153Z,355.17
2022-09-10T04:11:01.929Z,367.67
2022-09-10T04:13:29.181Z,293.83
2022-09-10T04:15:56.399Z,295.00
2022-09-10T04:18:24.029Z,363.50
2022-09-10T04:20:51.378Z,215.23
2022-09-10T04:23:18.271Z,338.38
2022-09-10T04:25:46.707Z,269.50
2022-09-10T04:28:13.789Z,339.38
2022-09-10T04:30:40.900Z,224.43
2022-09-10T04:33:09.925Z,265.42
2022-09-10T04:35:36.924Z,318.08
2022-09-10T04:38:07.238Z,276.42
2022-09-10T04:43:05.828Z,356.05
2022-09-10T04:45:37.216Z,373.17
2022-09-10T04:48:07.267Z,421.23
2022-09-10T04:50:35.921Z,273.88
2022-09-10T04:53:28.959Z,306.67
2022-09-10T04:55:57.885Z,331.60
2022-09-10T04:58:24.821Z,248.25
2022-09-10T05:00:52.207Z,226.02
2022-09-10T05:03:20.222Z,289.42
2022-09-10T05:05:48.122Z,155.27
2022-09-10T05:08:15.338Z,271.25
2022-09-10T05:10:49.401Z,200.57
2022-09-10T05:13:16.934Z,164.95
2022-09-10T05:15:46.154Z,145.95
2022-09-10T05:18:16.794Z,210.23
2022-09-10T05:20:47.436Z,182.05
2022-09-10T05:23:14.510Z,247.35
2022-09-10T05:25:44.397Z,198.68
2022-09-10T05:28:11.561Z,185.45
2022-09-10T05:30:38.658Z,269.52
2022-09-10T05:33:05.989Z,142.27
2022-09-10T05:35:34.768Z,208.43
2022-09-10T05:38:02.123Z,108.18
2022-09-10T05:40:32.497Z,164.32
2022-09-10T05:43:00.301Z,176.52
2022-09-10T05:45:27.555Z,119.63
2022-09-10T05:47:57.430Z,94.70
2022-09-10T05:50:24.695Z,81.60
2022-09-10T05:52:53.225Z,82.00
2022-09-10T05:55:20.984Z,91.88
2022-09-10T05:57:49.347Z,70.75
2022-09-10T06:00:19.439Z,95.32
2022-09-10T06:02:57.487Z,66.28
2022-09-10T06:05:29.299Z,81.22
2022-09-10T06:07:57.109Z,82.35
2022-09-10T06:10:24.079Z,69.20
2022-09-10T06:12:52.836Z,51.45
2022-09-10T06:15:21.308Z,61.15
2022-09-10T06:17:56.650Z,54.53
2022-09-10T06:20:24.620Z,59.90
2022-09-10T06:22:52.396Z,59.95
2022-09-10T06:25:19.351Z,54.40
2022-09-10T06:27:47.743Z,51.10
2022-09-10T06:30:16.750Z,57.90
2022-09-10T06:32:47.337Z,57.55
2022-09-10T06:35:14.975Z,46.72
2022-09-10T06:37:43.376Z,55.30
2022-09-10T06:40:12.206Z,61.63
2022-09-10T06:42:41.059Z,64.53
2022-09-10T06:45:13.945Z,49.30
2022-09-10T06:48:37.756Z,38.05
2022-09-10T06:50:55.828Z,53.08
2022-09-10T06:53:28.867Z,44.67
2022-09-10T06:55:56.589Z,49.65
2022-09-10T06:58:24.980Z,49.47
2022-09-10T07:00:52.836Z,42.47
2022-09-10T07:03:22.267Z,47.67
2022-09-10T07:05:50.816Z,41.53
2022-09-10T07:08:18.277Z,37.40
2022-09-10T07:13:17.566Z,36.00
2022-09-10T07:15:46.695Z,40.70
2022-09-10T07:18:15.763Z,30.90
2022-09-10T07:20:45.019Z,31.92
2022-09-10T07:23:14.206Z,27.52
2022-09-10T07:25:42.106Z,30.83
2022-09-10T07:28:18.208Z,30.52
2022-09-10T07:30:47.672Z,30.50
2022-09-10T07:33:16.548Z,26.05
2022-09-10T07:35:45.116Z,23.00
2022-09-10T07:38:17.526Z,20.10
2022-09-10T07:40:48.451Z,19.13
2022-09-10T07:43:16.706Z,21.98
2022-09-10T07:45:44.178Z,20.92
2022-09-10T07:48:12.045Z,19.73
2022-09-10T07:50:39.899Z,19.35
2022-09-10T07:53:07.411Z,19.92
2022-09-10T07:55:35.778Z,17.98
2022-09-10T07:58:03.497Z,17.80
2022-09-10T08:00:31.930Z,18.80
2022-09-10T08:03:05.516Z,19.00
2022-09-10T08:05:33.503Z,19.30
2022-09-10T08:08:01.799Z,17.67
2022-09-10T08:10:29.749Z,19.92
2022-09-10T08:12:58.130Z,19.73
2022-09-10T08:15:25.440Z,18.48
2022-09-10T08:17:53.305Z,19.55
2022-09-10T08:20:25.323Z,16.92
2022-09-10T08:22:53.339Z,17.25
2022-09-10T08:25:21.685Z,18.30
2022-09-10T08:27:49.104Z,17.23
2022-09-10T08:30:16.475Z,19.35
2022-09-10T08:32:43.927Z,20.77
2022-09-10T08:35:14.743Z,18.05
2022-09-10T08:37:42.210Z,16.17
2022-09-10T08:40:12.495Z,19.23
2022-09-10T08:42:49.434Z,17.45
2022-09-10T08:45:32.758Z,18.58
2022-09-10T08:48:13.286Z,18.75
2022-09-10T08:50:52.974Z,20.05
2022-09-10T08:53:36.730Z,19.23
2022-09-10T08:56:11.425Z,19.90
2022-09-10T08:58:42.822Z,19.25
2022-09-10T09:01:15.724Z,22.95
2022-09-10T09:03:47.659Z,20.83
2022-09-10T09:06:41.278Z,22.38
2022-09-10T09:09:14.838Z,19.70
2022-09-10T09:11:49.224Z,20.13
2022-09-10T09:14:53.629Z,18.98
2022-09-10T09:17:42.860Z,30.23
2022-09-10T09:20:20.250Z,24.30
2022-09-10T09:22:53.585Z,26.77
2022-09-10T09:26:04.201Z,26.23
2022-09-10T09:28:47.344Z,25.52
2022-09-10T09:31:23.700Z,22.75
2022-09-10T09:33:56.554Z,22.73
2022-09-10T09:36:32.788Z,25.52
2022-09-10T09:39:03.060Z,26.42
2022-09-10T09:41:39.400Z,28.48
2022-09-10T09:44:19.657Z,30.35
2022-09-10T09:46:46.742Z,27.30
2022-09-10T09:49:17.641Z,31.08
2022-09-10T09:51:47.501Z,32.83
2022-09-10T09:54:51.417Z,29.17
2022-09-10T09:57:15.614Z,35.77
2022-09-10T09:59:42.598Z,28.67
2022-09-10T10:02:15.640Z,31.15
2022-09-10T10:05:13.677Z,30.10
2022-09-10T10:07:40.610Z,34.25
2022-09-10T10:10:12.302Z,29.05
2022-09-10T10:12:42.596Z,29.10
2022-09-10T10:15:36.781Z,30.73
2022-09-10T10:18:31.982Z,28.50
2022-09-10T10:21:37.024Z,31.67
2022-09-10T10:24:04.272Z,32.42
2022-09-10T10:26:33.144Z,33.10
2022-09-10T10:29:06.401Z,33.60
2022-09-10T10:31:37.234Z,32.08
2022-09-10T10:34:10.476Z,32.55
2022-09-10T10:37:02.033Z,33.75
2022-09-10T10:39:38.742Z,28.92
2022-09-10T10:42:34.363Z,31.13
2022-09-10T10:45:28.997Z,26.55
2022-09-10T10:48:10.132Z,26.77
2022-09-10T10:50:44.751Z,24.35
2022-09-10T10:53:48.510Z,26.00
2022-09-10T10:56:30.293Z,24.50
2022-09-10T10:59:23.761Z,25.08
2022-09-10T11:01:56.466Z,24.63
2022-09-10T11:04:29.978Z,25.63
2022-09-10T11:07:04.692Z,25.73
2022-09-10T11:09:44.351Z,26.83
2022-09-10T11:12:20.352Z,28.27
2022-09-10T11:14:53.661Z,25.85
2022-09-10T11:17:46.576Z,33.65
2022-09-10T11:20:34.549Z,37.00
2022-09-10T11:23:08.091Z,32.65
2022-09-10T11:25:53.255Z,33.63
2022-09-10T11:28:25.952Z,29.95
2022-09-10T11:31:02.964Z,29.52
2022-09-10T11:33:37.593Z,30.75
2022-09-10T11:36:43.381Z,33.08
2022-09-10T11:39:42.125Z,34.35
2022-09-10T11:42:46.101Z,30.15
2022-09-10T11:45:39.810Z,30.52
2022-09-10T11:48:40.058Z,31.25
2022-09-10T11:51:26.915Z,33.20
2022-09-10T11:53:54.914Z,29.08
2022-09-10T11:56:46.652Z,31.67
2022-09-10T11:59:25.552Z,26.05
2022-09-10T12:02:14.429Z,27.70
2022-09-10T12:05:06.351Z,32.25
2022-09-10T12:07:56.867Z,30.05
2022-09-10T12:10:55.627Z,36.53
2022-09-10T12:13:22.794Z,43.30
2022-09-10T12:16:00.010Z,35.88
2022-09-10T12:18:31.224Z,38.38
2022-09-10T12:20:59.892Z,36.25
2022-09-10T12:23:33.534Z,32.63
2022-09-10T12:26:05.715Z,33.83
2022-09-10T12:28:51.255Z,27.27
2022-09-10T12:31:20.524Z,28.23
2022-09-10T12:33:47.578Z,26.92
2022-09-10T12:36:35.653Z,26.63
2022-09-10T12:39:20.713Z,25.70
2022-09-10T12:41:47.553Z,23.10
2022-09-10T12:44:36.455Z,22.80
2022-09-10T12:47:15.996Z,20.02
2022-09-10T12:49:57.335Z,24.67
2022-09-10T12:52:42.955Z,28.08
2022-09-10T12:55:23.070Z,27.30
2022-09-10T12:58:05.454Z,28.13
2022-09-10T13:01:09.585Z,27.92
2022-09-10T13:03:37.776Z,28.35
2022-09-10T13:06:07.239Z,31.80
2022-09-10T13:08:45.453Z,33.60
2022-09-10T13:11:23.274Z,38.83
2022-09-10T13:14:12.292Z,36.65
2022-09-10T13:16:40.971Z,39.60
2022-09-10T13:19:13.836Z,38.75
2022-09-10T13:21:40.803Z,38.97
2022-09-10T13:24:34.499Z,36.97
2022-09-10T13:27:16.812Z,31.10
2022-09-10T13:29:46.134Z,31.20
2022-09-10T13:32:34.888Z,32.92
2022-09-10T13:35:04.354Z,33.28
2022-09-10T13:37:50.483Z,32.30
2022-09-10T13:40:39.382Z,32.28
2022-09-10T13:43:31.272Z,38.53
2022-09-10T13:46:15.051Z,32.63
2022-09-10T13:48:46.756Z,32.53
2022-09-10T13:51:31.038Z,33.17
2022-09-10T13:54:04.114Z,34.30
2022-09-10T13:56:32.407Z,31.38
2022-09-10T13:59:03.585Z,33.20
2022-09-10T14:01:50.661Z,33.17
2022-09-10T14:04:39.098Z,30.90
2022-09-10T14:07:20.258Z,31.98
2022-09-10T14:09:56.866Z,32.70
2022-09-10T14:12:28.208Z,35.55
2022-09-10T14:14:59.368Z,34.75
2022-09-10T14:17:31.572Z,33.47
2022-09-10T14:20:06.044Z,35.90
2022-09-10T14:22:33.428Z,33.67
2022-09-10T14:25:02.725Z,37.25
2022-09-10T14:27:32.588Z,37.83
2022-09-10T14:30:21.224Z,35.80
2022-09-10T14:32:48.453Z,39.33
2022-09-10T14:35:44.292Z,36.17
2022-09-10T14:38:31.170Z,33.70
2022-09-10T14:41:11.082Z,41.85
2022-09-10T14:43:40.698Z,35.58
2022-09-10T14:46:10.306Z,35.30
2022-09-10T14:48:41.210Z,35.90
2022-09-10T14:51:12.386Z,41.13
2022-09-10T14:53:40.953Z,40.23
2022-09-10T14:56:39.748Z,43.35
2022-09-10T14:59:15.367Z,38.38
2022-09-10T15:01:48.241Z,42.20
2022-09-10T15:04:18.480Z,39.92
2022-09-10T15:06:46.153Z,38.00
2022-09-10T15:09:13.991Z,38.40
2022-09-10T15:11:50.892Z,42.28
2022-09-10T15:14:18.683Z,43.55
2022-09-10T15:16:46.982Z,43.67
2022-09-10T15:19:14.463Z,39.20
2022-09-10T15:21:41.419Z,43.40
2022-09-10T15:24:15.914Z,40.80
2022-09-10T15:26:43.364Z,46.03
2022-09-10T15:29:11.132Z,42.72
2022-09-10T15:31:38.872Z,44.92
2022-09-10T15:34:07.648Z,48.65
2022-09-10T15:36:37.083Z,40.03
2022-09-10T15:39:05.485Z,41.53
2022-09-10T15:41:32.385Z,45.63
2022-09-10T15:43:59.499Z,46.72
2022-09-10T15:46:26.505Z,43.97
2022-09-10T15:48:55.631Z,41.90
2022-09-10T15:51:24.034Z,43.47
2022-09-10T15:53:52.706Z,41.40
2022-09-10T15:56:21.308Z,45.30
2022-09-10T15:58:55.157Z,51.10
2022-09-10T16:01:25.319Z,46.80
2022-09-10T16:03:55.962Z,47.65
2022-09-10T16:06:25.813Z,50.40
2022-09-10T16:08:57.500Z,49.10
2022-09-10T16:11:25.462Z,52.13
2022-09-10T16:13:52.815Z,52.35
2022-09-10T16:16:22.506Z,61.03
2022-09-10T16:18:51.723Z,48.88
2022-09-10T16:21:22.476Z,44.80
2022-09-10T16:23:51.894Z,45.28
2022-09-10T16:26:24.336Z,43.88
2022-09-10T16:28:52.807Z,43.90
2022-09-10T16:31:23.052Z,45.90
2022-09-10T16:33:54.663Z,45.53
2022-09-10T16:38:53.569Z,54.75
2022-09-10T16:41:21.039Z,49.92
2022-09-10T16:43:47.959Z,51.22
2022-09-10T16:46:15.039Z,51.88
2022-09-10T16:48:43.026Z,52.38
2022-09-10T16:51:15.865Z,58.08
2022-09-10T16:53:44.402Z,61.13
2022-09-10T16:56:16.449Z,62.55
2022-09-10T16:58:47.717Z,52.95
2022-09-10T17:01:15.881Z,60.97
2022-09-10T17:03:50.757Z,11.50
2022-09-10T17:06:24.499Z,50.80
2022-09-10T17:08:56.228Z,51.55
2022-09-10T17:11:26.114Z,49.70
2022-09-10T17:13:54.303Z,46.42
2022-09-10T17:16:21.274Z,56.63
2022-09-10T17:18:53.051Z,57.92
2022-09-10T17:21:19.955Z,63.28
2022-09-10T17:23:46.955Z,76.25
2022-09-10T17:26:13.882Z,76.80
2022-09-10T17:28:41.453Z,82.93
2022-09-10T17:31:08.691Z,85.95
2022-09-10T17:33:35.675Z,83.22
2022-09-10T17:36:04.149Z,74.38
2022-09-10T17:38:33.836Z,80.22
2022-09-10T17:41:02.796Z,80.85
2022-09-10T17:43:34.210Z,69.18
2022-09-10T17:46:09.462Z,88.15
2022-09-10T17:48:38.018Z,86.50
2022-09-10T17:51:06.269Z,58.78
2022-09-10T17:53:34.149Z,75.97
2022-09-10T17:56:05.534Z,65.18
2022-09-10T17:58:33.382Z,67.90
2022-09-10T18:01:01.944Z,59.63
2022-09-10T18:03:29.301Z,70.32
2022-09-10T18:05:57.139Z,82.05
2022-09-10T18:08:24.208Z,58.65
2022-09-10T18:11:05.777Z,52.55
2022-09-10T18:13:36.445Z,62.08
2022-09-10T18:16:11.742Z,56.40
2022-09-10T18:18:39.513Z,67.30
2022-09-10T18:21:27.284Z,69.68
2022-09-10T18:24:00.548Z,75.13
2022-09-10T18:26:32.566Z,72.78
2022-09-10T18:31:32.583Z,78.13
2022-09-10T18:34:00.921Z,96.30
2022-09-10T18:36:32.871Z,108.55
2022-09-10T18:41:38.595Z,125.93
2022-09-10T18:44:08.922Z,146.85
2022-09-10T18:46:36.506Z,140.40
2022-09-10T18:49:05.445Z,202.32
2022-09-10T18:51:32.735Z,144.13
2022-09-10T18:54:01.429Z,161.15
2022-09-10T18:56:30.553Z,130.23
2022-09-10T18:59:01.350Z,140.68
2022-09-10T19:01:29.807Z,117.90
2022-09-10T19:03:59.726Z,144.50
2022-09-10T19:06:29.205Z,114.63
2022-09-10T19:08:59.878Z,125.07
2022-09-10T19:11:33.092Z,134.88
2022-09-10T19:14:01.877Z,114.53
2022-09-10T19:16:30.423Z,144.15
2022-09-10T19:19:02.939Z,190.93
2022-09-10T19:21:32.870Z,154.55
2022-09-10T19:24:00.955Z,154.65
2022-09-10T19:26:30.844Z,128.23
2022-09-10T19:28:59.364Z,139.13
2022-09-10T19:31:28.316Z,138.95
2022-09-10T19:34:06.619Z,145.43
2022-09-10T19:36:35.734Z,133.70
2022-09-10T19:39:09.070Z,145.70
2022-09-10T19:41:39.785Z,184.82
2022-09-10T19:44:08.934Z,171.88
2022-09-10T19:46:37.428Z,144.23
2022-09-10T19:49:07.014Z,159.20
2022-09-10T19:51:36.995Z,153.80
2022-09-10T19:54:04.654Z,125.72
2022-09-10T19:56:35.016Z,158.95
2022-09-10T19:59:08.840Z,143.35
2022-09-10T20:01:43.776Z,178.23
2022-09-10T20:04:11.877Z,163.32
2022-09-10T20:06:39.484Z,141.88
2022-09-10T20:09:07.630Z,121.85
2022-09-10T20:11:35.368Z,118.43
2022-09-10T20:14:16.142Z,160.55
2022-09-10T20:16:45.295Z,153.20
2022-09-10T20:19:14.561Z,139.55
2022-09-10T20:21:42.342Z,132.60
2022-09-10T20:24:09.879Z,130.00
2022-09-10T20:26:38.341Z,112.78
2022-09-10T20:29:12.475Z,154.77
2022-09-10T20:31:41.388Z,124.13
2022-09-10T20:34:14.281Z,166.38
2022-09-10T20:36:45.225Z,84.25
2022-09-10T20:39:17.227Z,91.70
2022-09-10T20:41:45.259Z,78.95
2022-09-10T20:44:14.050Z,86.70
2022-09-10T20:46:41.965Z,91.35
2022-09-10T20:49:11.095Z,71.55
2022-09-10T20:51:40.514Z,78.63
2022-09-10T20:54:10.903Z,70.15
2022-09-10T20:56:38.158Z,73.38
2022-09-10T20:59:05.333Z,71.85
2022-09-10T21:01:33.162Z,81.38
2022-09-10T21:04:01.834Z,81.97
2022-09-10T21:06:31.454Z,87.13
2022-09-10T21:09:00.736Z,106.18
2022-09-10T21:11:30.827Z,97.43
2022-09-10T21:14:00.738Z,92.75
2022-09-10T21:16:29.777Z,79.20
2022-09-10T21:19:01.441Z,74.57
2022-09-10T21:21:30.355Z,79.15
2022-09-10T21:23:59.887Z,75.25
2022-09-10T21:26:32.379Z,113.97
2022-09-10T21:29:02.336Z,82.55
2022-09-10T21:31:30.363Z,75.13
2022-09-10T21:34:02.788Z,86.80
2022-09-10T21:36:32.368Z,77.47
2022-09-10T21:39:01.570Z,89.20
2022-09-10T21:41:39.969Z,80.60
2022-09-10T21:44:20.079Z,87.57
2022-09-10T21:46:47.567Z,91.78
2022-09-10T21:49:14.789Z,84.32
2022-09-10T21:51:42.487Z,84.15
2022-09-10T21:54:18.779Z,89.80
2022-09-10T21:56:46.083Z,90.63
2022-09-10T21:59:14.597Z,87.43
2022-09-10T22:01:43.995Z,86.03
2022-09-10T22:04:11.528Z,91.85
2022-09-10T22:06:38.979Z,83.10
2022-09-10T22:09:08.290Z,109.82
2022-09-10T22:11:45.836Z,90.95
2022-09-10T22:14:18.294Z,88.88
2022-09-10T22:16:45.883Z,91.10
2022-09-10T22:19:15.646Z,83.00
2022-09-10T22:21:42.630Z,92.55
2022-09-10T22:24:11.404Z,90.65
2022-09-10T22:26:43.355Z,96.15
2022-09-10T22:29:10.925Z,88.40
2022-09-10T22:31:38.200Z,95.28
2022-09-10T22:34:11.387Z,84.80
2022-09-10T22:36:39.702Z,102.00
2022-09-10T22:39:08.957Z,92.93
2022-09-10T22:41:36.573Z,101.32
2022-09-10T22:44:03.613Z,95.68
2022-09-10T22:46:31.158Z,79.55
2022-09-10T22:48:58.246Z,73.18
2022-09-10T22:51:27.907Z,86.63
2022-09-10T22:53:55.790Z,102.15
2022-09-10T22:56:24.816Z,89.70
2022-09-10T22:58:52.803Z,90.07
2022-09-10T23:01:22.762Z,98.22
2022-09-10T23:03:50.368Z,76.57
2022-09-10T23:06:19.846Z,98.93
2022-09-10T23:08:50.356Z,82.38
2022-09-10T23:11:27.236Z,65.70
2022-09-10T23:13:59.663Z,78.78
2022-09-10T23:16:29.094Z,66.32
2022-09-10T23:18:57.637Z,72.93
2022-09-10T23:21:26.804Z,71.45
2022-09-10T23:23:56.447Z,74.88
2022-09-10T23:26:24.385Z,71.95
2022-09-10T23:28:51.770Z,88.82
2022-09-10T23:31:20.923Z,79.82
2022-09-10T23:33:54.517Z,89.43
2022-09-10T23:36:21.966Z,88.38
2022-09-10T23:38:49.087Z,97.18
2022-09-10T23:41:16.577Z,85.88
2022-09-10T23:43:44.574Z,84.25
2022-09-10T23:46:12.493Z,83.18
2022-09-10T23:48:40.069Z,75.93
2022-09-10T23:51:07.137Z,70.57
2022-09-10T23:53:34.138Z,68.95
2022-09-10T23:56:02.949Z,72.68
2022-09-10T23:58:30.116Z,62.92
